Airfield :
LOGIN :

Register | Disclaimer

   EN    FR    IT 

 










Legend :    VFR   Marginal VFR   IFR   Intensive IFR   Very Intensive IFR
Visi :
Ceiling :
>= 8 km
>= 3000ft
5 to 8 km
1000 to 3000 ft
1500m to 5 km
500 to 1000 ft
800 to 1500m
200 to 500 ft
< 800m
< 200 ft
Symbols :   Thunderstorms  Fog  Heavy snow  Heavy precipitations  Wind > 20 kt
SIGMETs :     Misc.  Thunderstorms  Icing  Turbulence  Mountain Waves  Volcanic Ashes






- Airport Elevation : 1161 ft
- IATA code : RJL


LELO - Logroño-Agoncillo

CURRENT METAR :
  • 050800Z 26010KT 9999 SCT065 02/M01 Q0999

EXPIRED METARs :
  • 050730Z 27014KT 9999 SCT065 02/M01 Q0999
  • 050700Z 26012KT 9999 SCT065 02/M01 Q0999
  • 050630Z AUTO 26009KT 9999 FEW060 02/M01 Q0999
  • 050600Z AUTO 26011KT 9999 FEW067 02/M01 Q0999
  • 050530Z AUTO 26010KT CAVOK 02/M01 Q0998

TAF TAF LELO
Valid from the 05 at 03:00 until the 06 at 03:00 UTC


050200Z 0503/0603 28012KT 9999 FEW035 BKN045 TX09/0514Z TNM01/0506Z
PROB40
TEMPO 0509/0518 4000 RA BKN012



MET'MAP, your aeronautical weather chart ! - Copyright ORBIFLY December 2007 - Disclaimer

ORBIFLY MET'MAP TEAM :

Programming & Development : Alexandra Zaïnal
Concept & original design : Baudouin d'Aumeries
Assistance for programming : Marc-Olivier Méhu
Technical & hardware support : Manuel Goepfert

Contact : metmap@orbifly.com




SOURCES & CREDITS :

   NOAA